Time;durP1;ratioP1;P1;durP2;ratioP2;P2;SDS_P1;SDS_P2;PMS_P1;PMS_P2;Temp;Humidity;BMP_temperature;BMP_pressure;BME280_temperature;BME280_humidity;BME280_pressure;Samples;Min_cycle;Max_cycle;Signal;HPM_P1;HPM_P2
2023/01/02 00:01:39;;;;;;;33.97;21.05;;;231.10;2252.80;;;;;;5091244;28;20028;-63
2023/01/02 00:04:05;;;;;;;75.93;46.10;;;231.00;2252.80;;;;;;5091112;28;20055;-63
2023/01/02 00:06:35;;;;;;;85.10;52.72;;;230.90;2252.80;;;;;;5090616;28;20066;-63
2023/01/02 00:09:02;;;;;;;43.10;27.45;;;230.90;2252.80;;;;;;5090841;28;20056;-63
2023/01/02 00:11:27;;;;;;;39.08;26.60;;;230.80;2252.80;;;;;;5091075;28;20032;-63
2023/01/02 00:13:53;;;;;;;49.35;26.17;;;230.80;2252.80;;;;;;5090780;28;20027;-62
2023/01/02 00:16:19;;;;;;;51.33;29.00;;;230.70;2252.80;;;;;;5091034;28;20048;-63
2023/01/02 00:18:45;;;;;;;61.83;37.42;;;230.50;2252.80;;;;;;5090384;28;20024;-62
2023/01/02 00:21:10;;;;;;;26.38;18.10;;;230.50;2252.80;;;;;;5090773;28;20032;-62
2023/01/02 00:23:36;;;;;;;21.45;14.75;;;230.50;2252.80;;;;;;5090678;28;20024;-62
2023/01/02 00:26:02;;;;;;;120.60;68.60;;;205.70;2252.80;;;;;;5090873;28;20370;-63
2023/01/02 00:28:28;;;;;;;157.13;90.88;;;205.70;2252.80;;;;;;5090652;28;20039;-63
2023/01/02 00:30:54;;;;;;;161.23;90.75;;;205.70;2252.80;;;;;;5092079;28;20020;-63
2023/01/02 00:33:19;;;;;;;212.07;121.78;;;230.40;2252.80;;;;;;5092737;28;20109;-63
2023/01/02 00:35:45;;;;;;;37.58;24.77;;;230.50;2252.80;;;;;;5092020;28;20564;-63
2023/01/02 00:38:11;;;;;;;129.10;68.47;;;230.40;2252.80;;;;;;5091963;28;20107;-62
2023/01/02 00:40:37;;;;;;;39.25;23.75;;;205.70;2252.80;;;;;;5091766;28;20024;-62
2023/01/02 00:43:02;;;;;;;26.30;17.58;;;205.70;2252.80;;;;;;5091862;28;20028;-65
2023/01/02 00:45:28;;;;;;;28.88;17.92;;;230.40;2252.80;;;;;;5091882;28;20052;-65
2023/01/02 00:47:54;;;;;;;18.08;11.98;;;230.40;2252.80;;;;;;5091983;28;20016;-65
2023/01/02 00:50:20;;;;;;;94.13;58.08;;;205.60;2252.80;;;;;;5091642;28;20058;-65
2023/01/02 00:52:46;;;;;;;41.10;23.98;;;205.70;2252.80;;;;;;5091460;28;20028;-65
2023/01/02 00:55:12;;;;;;;42.95;27.38;;;205.50;2252.80;;;;;;5091912;28;20055;-64
2023/01/02 00:57:37;;;;;;;26.20;20.27;;;205.30;2252.80;;;;;;5090920;28;20073;-65
2023/01/02 01:00:05;;;;;;;34.08;22.48;;;205.40;2252.80;;;;;;5091472;28;20051;-65
2023/01/02 01:02:31;;;;;;;46.38;26.27;;;205.50;2252.80;;;;;;5091665;28;20016;-66
2023/01/02 01:04:56;;;;;;;53.38;30.85;;;205.60;2252.80;;;;;;5091375;28;20390;-63
2023/01/02 01:07:22;;;;;;;51.38;29.98;;;205.60;2252.80;;;;;;5091733;28;20024;-62
2023/01/02 01:09:48;;;;;;;40.83;22.67;;;205.60;2252.80;;;;;;5091508;28;20461;-62
2023/01/02 01:12:13;;;;;;;27.38;17.13;;;205.70;2252.80;;;;;;5091193;28;20032;-63
2023/01/02 01:14:39;;;;;;;103.32;58.38;;;205.70;2252.80;;;;;;5091332;28;20031;-65
2023/01/02 01:17:05;;;;;;;51.35;30.70;;;205.60;2252.80;;;;;;5091105;28;20074;-64
2023/01/02 01:19:32;;;;;;;28.42;17.17;;;205.40;2252.80;;;;;;5091340;28;20032;-64
2023/01/02 01:21:59;;;;;;;78.85;45.80;;;205.40;2252.80;;;;;;5091109;28;20063;-63
2023/01/02 01:24:24;;;;;;;34.20;25.08;;;205.50;2252.80;;;;;;5091147;28;20099;-64
2023/01/02 01:26:50;;;;;;;18.25;12.82;;;205.50;2252.80;;;;;;5091241;28;20453;-66
2023/01/02 01:29:16;;;;;;;12.15;9.68;;;205.60;2252.80;;;;;;5091218;28;20068;-62
2023/01/02 01:31:41;;;;;;;16.70;9.45;;;205.50;2252.80;;;;;;5091128;28;20474;-62
2023/01/02 01:34:09;;;;;;;22.63;14.30;;;205.50;2252.80;;;;;;5091040;28;20035;-62
2023/01/02 01:36:36;;;;;;;18.70;11.73;;;205.50;2252.80;;;;;;5090721;28;20040;-63
2023/01/02 01:39:01;;;;;;;87.15;47.55;;;205.50;2252.80;;;;;;5090914;28;20374;-63
2023/01/02 01:41:27;;;;;;;56.80;32.28;;;205.50;2252.80;;;;;;5090656;28;20028;-66
2023/01/02 01:43:58;;;;;;;20.05;12.35;;;205.60;2252.80;;;;;;5090948;28;20067;-64
2023/01/02 01:46:42;;;;;;;134.88;83.00;;;205.60;2252.80;;;;;;5090901;28;20016;-62
2023/01/02 01:49:20;;;;;;;51.72;30.90;;;205.70;2252.80;;;;;;5090776;28;20024;-62
2023/01/02 01:51:50;;;;;;;55.33;34.78;;;205.70;2252.80;;;;;;5090332;28;20028;-69
2023/01/02 01:54:23;;;;;;;21.23;12.82;;;205.70;2252.80;;;;;;5090698;28;20036;-63
2023/01/02 01:56:55;;;;;;;23.42;14.43;;;230.40;2252.80;;;;;;5090944;28;20419;-68
2023/01/02 01:59:20;;;;;;;80.53;48.97;;;205.70;2252.80;;;;;;5090761;28;20016;-68
2023/01/02 02:01:49;;;;;;;24.58;16.27;;;205.70;2252.80;;;;;;5090489;28;20500;-65
2023/01/02 02:04:17;;;;;;;57.92;33.85;;;205.70;2252.80;;;;;;5090285;28;20111;-60
2023/01/02 02:06:43;;;;;;;41.63;25.88;;;205.70;2252.80;;;;;;5090428;28;20055;-62
2023/01/02 02:09:34;;;;;;;33.95;21.23;;;205.70;2252.80;;;;;;5089960;28;20059;-63
2023/01/02 02:12:02;;;;;;;35.50;17.65;;;205.70;2252.80;;;;;;5090458;28;20490;-64
2023/01/02 02:14:27;;;;;;;39.85;24.50;;;205.70;2252.80;;;;;;5090428;28;20020;-63
2023/01/02 02:17:27;;;;;;;89.68;52.90;;;205.70;2252.80;;;;;;5090396;28;20035;-63
2023/01/02 02:20:16;;;;;;;76.05;36.35;;;205.60;2252.80;;;;;;5090485;28;20035;-63
2023/01/02 02:22:54;;;;;;;42.05;23.17;;;205.70;2252.80;;;;;;5090042;28;20492;-62
2023/01/02 02:25:37;;;;;;;25.75;16.35;;;205.60;2252.80;;;;;;5090367;28;20020;-62
2023/01/02 02:28:37;;;;;;;17.83;11.77;;;205.60;2252.80;;;;;;5090137;28;20538;-68
2023/01/02 02:31:23;;;;;;;15.98;11.10;;;205.50;2252.80;;;;;;5090204;28;20036;-67
2023/01/02 02:34:05;;;;;;;16.55;10.32;;;205.50;2252.80;;;;;;5090084;28;20035;-69
2023/01/02 02:37:00;;;;;;;20.20;10.60;;;205.50;2252.80;;;;;;5090189;28;20039;-62
2023/01/02 02:40:04;;;;;;;19.77;12.85;;;205.40;2252.80;;;;;;5090076;28;20062;-63
2023/01/02 02:42:38;;;;;;;18.20;12.93;;;205.40;2252.80;;;;;;5008067;28;20724;-62
2023/01/02 02:45:10;;;;;;;20.02;13.43;;;205.40;2252.80;;;;;;5007771;28;20407;-64
2023/01/02 02:48:02;;;;;;;35.10;31.80;;;205.30;2252.80;;;;;;5007972;28;20022;-62
2023/01/02 02:50:54;;;;;;;18.70;13.60;;;205.30;2252.80;;;;;;5008314;28;20515;-62
2023/01/02 02:53:24;;;;;;;20.08;11.65;;;205.30;2252.80;;;;;;5008076;28;20034;-62
2023/01/02 02:55:53;;;;;;;13.75;9.88;;;205.20;2252.80;;;;;;5008049;28;20046;-65
2023/01/02 02:58:20;;;;;;;14.68;9.77;;;205.20;2252.80;;;;;;5008161;28;20034;-62
2023/01/02 03:00:46;;;;;;;15.40;8.77;;;205.20;2252.80;;;;;;5007890;28;20035;-62
2023/01/02 03:03:21;;;;;;;18.92;15.45;;;205.20;2252.80;;;;;;5007950;28;20129;-63
2023/01/02 03:06:30;;;;;;;16.98;13.00;;;205.20;2252.80;;;;;;5007860;28;20041;-63
2023/01/02 03:09:29;;;;;;;14.52;10.55;;;205.20;2252.80;;;;;;5007349;28;20057;-62
2023/01/02 03:12:00;;;;;;;14.48;9.98;;;205.20;2252.80;;;;;;5007872;28;20145;-62
2023/01/02 03:14:35;;;;;;;16.38;11.43;;;205.20;2252.80;;;;;;5007688;28;20065;-62
2023/01/02 03:17:06;;;;;;;15.43;10.43;;;205.20;2252.80;;;;;;5015910;28;20037;-64
2023/01/02 03:19:42;;;;;;;15.15;10.75;;;205.20;2252.80;;;;;;5090116;28;20024;-67
2023/01/02 03:22:15;;;;;;;21.10;11.07;;;205.30;2252.80;;;;;;5093577;28;20032;-62
2023/01/02 03:24:43;;;;;;;22.08;11.77;;;205.30;2252.80;;;;;;5093404;28;20032;-62
2023/01/02 03:27:14;;;;;;;28.65;14.35;;;205.30;2252.80;;;;;;5093765;28;20085;-62
2023/01/02 03:30:06;;;;;;;22.63;12.80;;;205.30;2252.80;;;;;;5093517;28;20036;-62
2023/01/02 03:32:42;;;;;;;25.67;15.80;;;205.30;2252.80;;;;;;5093410;28;20027;-63
2023/01/02 03:35:14;;;;;;;43.03;22.58;;;205.40;2252.80;;;;;;5093475;28;20035;-66
2023/01/02 03:37:45;;;;;;;26.08;15.13;;;205.40;2252.80;;;;;;5093346;28;20055;-67
2023/01/02 03:40:18;;;;;;;16.80;9.90;;;205.30;2252.80;;;;;;5093333;28;20059;-62
2023/01/02 03:42:58;;;;;;;15.68;8.63;;;205.30;2252.80;;;;;;5093000;28;20043;-62
2023/01/02 03:45:30;;;;;;;10.77;7.95;;;205.20;2252.80;;;;;;5092962;28;20119;-62
2023/01/02 03:48:11;;;;;;;15.20;7.97;;;205.20;2252.80;;;;;;5093054;28;20530;-62
2023/01/02 03:50:46;;;;;;;12.80;8.32;;;205.20;2252.80;;;;;;5092960;28;20469;-65
2023/01/02 03:53:13;;;;;;;16.10;8.70;;;205.20;2252.80;;;;;;5093139;28;20136;-63
2023/01/02 03:55:43;;;;;;;18.10;10.32;;;205.20;2252.80;;;;;;5092955;28;20474;-62
2023/01/02 03:58:15;;;;;;;21.65;14.20;;;205.20;2252.80;;;;;;5093286;28;20077;-63
2023/01/02 04:00:50;;;;;;;22.10;12.60;;;205.20;2252.80;;;;;;5093170;28;20020;-70
2023/01/02 04:03:44;;;;;;;35.13;18.10;;;205.20;2252.80;;;;;;5093196;28;20123;-62
2023/01/02 04:06:14;;;;;;;30.42;17.80;;;205.10;2252.80;;;;;;5092733;28;20019;-62
2023/01/02 04:09:17;;;;;;;43.53;23.85;;;205.20;2252.80;;;;;;5092419;28;20107;-62
2023/01/02 04:11:49;;;;;;;55.85;32.75;;;205.30;2252.80;;;;;;5010934;28;20046;-65
2023/01/02 04:14:25;;;;;;;45.20;27.38;;;205.10;2252.80;;;;;;5010492;28;20041;-61
2023/01/02 04:16:52;;;;;;;37.08;22.35;;;205.10;2252.80;;;;;;5010602;28;20050;-61
2023/01/02 04:19:40;;;;;;;27.13;16.15;;;205.10;2252.80;;;;;;5010597;28;20475;-61
2023/01/02 04:22:12;;;;;;;36.55;22.45;;;205.10;2252.80;;;;;;5010207;28;20034;-62
2023/01/02 04:24:42;;;;;;;20.30;13.73;;;205.10;2252.80;;;;;;5010317;28;20026;-64
2023/01/02 04:27:30;;;;;;;18.33;12.00;;;205.10;2252.80;;;;;;5009913;28;20037;-64
2023/01/02 04:29:56;;;;;;;51.35;26.50;;;205.10;2252.80;;;;;;5010250;28;20022;-65
2023/01/02 04:32:30;;;;;;;19.25;12.27;;;205.00;2252.80;;;;;;5010234;28;20468;-64
2023/01/02 04:34:58;;;;;;;14.70;9.35;;;205.00;2252.80;;;;;;5010086;28;20057;-63
2023/01/02 04:37:33;;;;;;;11.68;8.98;;;205.00;2252.80;;;;;;5010290;28;20034;-63
2023/01/02 04:40:21;;;;;;;16.42;9.50;;;205.00;2252.80;;;;;;5010022;28;20042;-64
2023/01/02 04:42:47;;;;;;;12.85;7.18;;;205.00;2252.80;;;;;;5002187;28;20042;-63
2023/01/02 04:45:13;;;;;;;12.90;7.82;;;204.90;2252.80;;;;;;5009890;28;20224;-62
2023/01/02 04:47:39;;;;;;;12.98;7.55;;;204.90;2252.80;;;;;;5066241;28;20039;-65
2023/01/02 04:50:05;;;;;;;15.57;8.38;;;204.90;2252.80;;;;;;5091889;28;20052;-64
2023/01/02 04:52:31;;;;;;;16.08;9.00;;;204.90;2252.80;;;;;;5091928;28;20024;-62
2023/01/02 04:54:56;;;;;;;16.90;11.27;;;205.00;2252.80;;;;;;5091803;28;20039;-63
2023/01/02 04:57:22;;;;;;;17.30;15.43;;;205.00;2252.80;;;;;;5092230;28;20028;-62
2023/01/02 04:59:48;;;;;;;20.00;12.95;;;205.00;2252.80;;;;;;5091677;28;20493;-62
2023/01/02 05:02:13;;;;;;;15.00;9.23;;;205.00;2252.80;;;;;;5091536;28;20153;-62
2023/01/02 05:04:39;;;;;;;19.58;17.42;;;205.00;2252.80;;;;;;5091890;28;20034;-62
2023/01/02 05:07:04;;;;;;;18.10;12.48;;;205.00;2252.80;;;;;;5091205;28;20082;-64
2023/01/02 05:09:30;;;;;;;17.33;9.55;;;205.00;2252.80;;;;;;5091457;28;20067;-64
2023/01/02 05:11:56;;;;;;;130.13;65.50;;;205.00;2252.80;;;;;;5091621;28;20040;-62
2023/01/02 05:14:21;;;;;;;101.22;51.55;;;205.00;2252.80;;;;;;5091868;28;20028;-65
2023/01/02 05:16:47;;;;;;;61.80;28.13;;;205.00;2252.80;;;;;;5091193;28;20058;-62
2023/01/02 05:19:13;;;;;;;35.75;19.23;;;205.00;2252.80;;;;;;5091387;28;20032;-62
2023/01/02 05:24:25;;;;;;;11.50;7.57;;;205.10;2252.80;;;;;;5091647;28;20027;-63
2023/01/02 05:26:50;;;;;;;11.10;7.65;;;205.00;2252.80;;;;;;5091457;28;20017;-64
2023/01/02 05:29:16;;;;;;;13.93;11.93;;;205.00;2252.80;;;;;;5091064;28;20089;-63
2023/01/02 05:31:42;;;;;;;10.45;8.77;;;205.00;2252.80;;;;;;5091192;28;20024;-66
2023/01/02 05:34:13;;;;;;;12.65;8.55;;;205.00;2252.80;;;;;;5091059;28;20028;-64
2023/01/02 05:36:39;;;;;;;12.13;6.75;;;205.00;2252.80;;;;;;5090965;28;20024;-61
2023/01/02 05:39:12;;;;;;;13.40;8.63;;;204.90;2252.80;;;;;;5090528;28;20042;-61
2023/01/02 05:41:39;;;;;;;8.60;6.72;;;204.90;2252.80;;;;;;5090996;28;20374;-65
2023/01/02 05:44:07;;;;;;;12.13;6.93;;;204.90;2252.80;;;;;;5090086;28;20047;-62
2023/01/02 05:46:34;;;;;;;17.50;9.10;;;204.90;2252.80;;;;;;5090716;28;20028;-63
2023/01/02 05:48:59;;;;;;;48.35;23.90;;;204.90;2252.80;;;;;;5090840;28;20111;-62
2023/01/02 05:51:25;;;;;;;190.98;107.43;;;204.90;2252.80;;;;;;5090690;28;20111;-62
2023/01/02 05:53:54;;;;;;;56.97;28.73;;;204.80;2252.80;;;;;;5090819;28;20023;-62
2023/01/02 05:56:20;;;;;;;102.38;76.15;;;204.80;2252.80;;;;;;5090731;28;20093;-62
2023/01/02 05:58:48;;;;;;;43.72;33.13;;;204.80;2252.80;;;;;;5090902;28;20024;-62
2023/01/02 06:01:16;;;;;;;17.55;14.60;;;204.80;2252.80;;;;;;5090641;28;20052;-62
2023/01/02 06:03:46;;;;;;;29.02;16.23;;;204.90;2252.80;;;;;;5090759;28;20024;-62
2023/01/02 06:06:13;;;;;;;23.20;13.45;;;204.90;2252.80;;;;;;5090699;28;20081;-62
2023/01/02 06:08:39;;;;;;;26.75;19.48;;;205.10;2252.80;;;;;;5090224;28;20057;-60
2023/01/02 06:11:06;;;;;;;32.92;23.20;;;205.10;2252.80;;;;;;5090596;28;20040;-62
2023/01/02 06:13:33;;;;;;;67.40;42.42;;;205.20;2252.80;;;;;;5090849;28;20404;-62
2023/01/02 06:16:00;;;;;;;80.88;51.67;;;205.20;2252.80;;;;;;5090401;28;20089;-63
2023/01/02 06:18:27;;;;;;;52.45;37.05;;;205.20;2252.80;;;;;;5090274;28;20020;-62
2023/01/02 06:20:58;;;;;;;48.00;29.50;;;205.30;2252.80;;;;;;5090573;28;20053;-62
2023/01/02 06:23:24;;;;;;;55.58;32.55;;;205.30;2252.80;;;;;;5090420;28;20024;-62
2023/01/02 06:25:49;;;;;;;65.32;46.83;;;205.30;2252.80;;;;;;5090400;28;20038;-64
2023/01/02 06:28:15;;;;;;;36.90;28.52;;;205.40;2252.80;;;;;;5089998;28;20028;-62
2023/01/02 06:30:41;;;;;;;39.75;28.38;;;205.40;2252.80;;;;;;5090379;28;20067;-62
2023/01/02 06:33:06;;;;;;;48.92;34.67;;;205.50;2252.80;;;;;;5090083;28;20059;-62
2023/01/02 06:35:32;;;;;;;42.20;37.42;;;205.50;2252.80;;;;;;5089716;28;20042;-66
2023/01/02 06:37:58;;;;;;;31.67;27.25;;;205.50;2252.80;;;;;;5089752;28;20024;-63
2023/01/02 06:40:24;;;;;;;32.92;27.38;;;205.60;2252.80;;;;;;5089859;28;20032;-62
2023/01/02 06:42:49;;;;;;;50.05;36.20;;;205.60;2252.80;;;;;;5090164;28;20486;-63
2023/01/02 06:45:15;;;;;;;45.45;35.92;;;205.70;2252.80;;;;;;5089834;28;20047;-67
2023/01/02 06:47:41;;;;;;;53.78;36.30;;;205.70;2252.80;;;;;;5089899;28;20030;-62
2023/01/02 06:50:07;;;;;;;39.15;30.50;;;230.40;2252.80;;;;;;5089759;28;20024;-63
2023/01/02 06:52:32;;;;;;;26.38;20.52;;;230.50;2252.80;;;;;;5089915;28;21506;-65
2023/01/02 06:54:58;;;;;;;27.88;20.25;;;230.40;2252.80;;;;;;5092789;28;20038;-61
2023/01/02 06:57:24;;;;;;;44.67;34.42;;;230.50;2252.80;;;;;;5094070;28;20096;-67
2023/01/02 06:59:49;;;;;;;84.60;65.63;;;230.50;2252.80;;;;;;5093996;28;20114;-66
2023/01/02 07:02:15;;;;;;;100.38;70.72;;;230.60;2252.80;;;;;;5093820;28;20028;-65
2023/01/02 07:04:41;;;;;;;85.35;60.13;;;230.70;2252.80;;;;;;5094590;28;20054;-66
2023/01/02 07:07:07;;;;;;;70.25;53.17;;;230.80;2252.80;;;;;;5094134;28;20394;-64
2023/01/02 07:09:33;;;;;;;32.25;29.05;;;230.70;2252.80;;;;;;5093712;28;20084;-62
2023/01/02 07:11:59;;;;;;;17.95;14.95;;;230.70;2252.80;;;;;;5093924;28;20525;-63
2023/01/02 07:14:25;;;;;;;45.80;34.55;;;230.70;2252.80;;;;;;5093895;28;20359;-62
2023/01/02 07:16:51;;;;;;;40.72;31.05;;;230.80;2252.80;;;;;;5093870;28;20039;-67
2023/01/02 07:19:16;;;;;;;27.33;17.75;;;230.70;2252.80;;;;;;5093602;28;20024;-62
2023/01/02 07:21:42;;;;;;;16.58;13.20;;;230.60;2252.80;;;;;;5093799;28;20085;-63
2023/01/02 07:24:14;;;;;;;43.67;30.40;;;230.70;2252.80;;;;;;5093603;28;20032;-62
2023/01/02 07:26:40;;;;;;;43.53;33.78;;;230.90;2252.80;;;;;;5093818;28;20113;-64
2023/01/02 07:29:06;;;;;;;69.55;47.88;;;231.00;2252.80;;;;;;5093317;28;20042;-61
2023/01/02 07:31:32;;;;;;;76.75;55.15;;;231.20;2252.80;;;;;;5093659;28;20017;-64
2023/01/02 07:33:58;;;;;;;74.82;53.70;;;231.30;2252.80;;;;;;5093255;28;20412;-65
2023/01/02 07:36:24;;;;;;;78.13;59.40;;;231.20;2252.80;;;;;;5093317;28;20489;-61
2023/01/02 07:38:54;;;;;;;46.70;34.28;;;231.30;2252.80;;;;;;5093343;28;20024;-61
2023/01/02 07:41:22;;;;;;;38.47;25.25;;;231.30;2252.80;;;;;;5093571;28;20032;-62
2023/01/02 07:43:49;;;;;;;21.23;15.65;;;231.30;2252.80;;;;;;5093293;28;20036;-62
2023/01/02 07:46:17;;;;;;;38.17;29.27;;;231.30;2252.80;;;;;;5093174;28;20027;-61
2023/01/02 07:48:44;;;;;;;130.25;87.57;;;231.30;2252.80;;;;;;5092876;28;20059;-62
2023/01/02 07:51:10;;;;;;;38.83;27.50;;;231.30;2252.80;;;;;;5093127;28;20427;-64
2023/01/02 07:53:37;;;;;;;26.10;19.08;;;231.30;2252.80;;;;;;5092909;28;20066;-62
2023/01/02 07:56:04;;;;;;;40.47;25.58;;;256.20;2252.80;;;;;;5092761;28;20032;-62
2023/01/02 07:58:30;;;;;;;85.80;48.55;;;256.30;2252.80;;;;;;5093311;28;20020;-64
2023/01/02 08:00:57;;;;;;;98.20;62.92;;;256.30;2252.80;;;;;;5092911;28;20020;-63
2023/01/02 08:03:23;;;;;;;56.50;41.50;;;256.50;2252.80;;;;;;5093210;28;20020;-65
2023/01/02 08:05:49;;;;;;;33.35;24.50;;;256.50;2252.80;;;;;;5092211;28;20024;-61
2023/01/02 08:08:16;;;;;;;27.95;21.63;;;256.60;2252.80;;;;;;5092481;28;20016;-61
2023/01/02 08:10:41;;;;;;;27.33;21.02;;;256.80;2252.80;;;;;;5092889;28;20036;-66
2023/01/02 08:13:07;;;;;;;23.77;18.65;;;256.90;2252.80;;;;;;5092202;28;20074;-60
2023/01/02 08:15:33;;;;;;;21.65;15.90;;;256.90;2252.80;;;;;;5091936;28;20071;-62
2023/01/02 08:17:59;;;;;;;35.63;27.85;;;256.90;2252.80;;;;;;5092665;28;20028;-64
2023/01/02 08:20:25;;;;;;;43.72;32.97;;;281.70;2278.40;;;;;;5092603;28;20024;-65
2023/01/02 08:22:51;;;;;;;31.77;25.35;;;281.90;2278.40;;;;;;5092303;28;20481;-67
2023/01/02 08:25:17;;;;;;;36.97;31.00;;;281.90;2278.40;;;;;;5092355;28;20031;-65
2023/01/02 08:27:43;;;;;;;19.75;16.50;;;282.00;2278.40;;;;;;5092429;28;20123;-62
2023/01/02 08:30:10;;;;;;;20.45;15.77;;;282.40;2278.40;;;;;;5092132;28;20046;-63
2023/01/02 08:32:37;;;;;;;15.57;12.02;;;307.80;2304.00;;;;;;5092024;28;20032;-61
2023/01/02 08:35:04;;;;;;;15.55;12.02;;;308.10;2304.00;;;;;;5091967;28;20036;-66
2023/01/02 08:37:29;;;;;;;21.35;16.92;;;332.80;2329.60;;;;;;5092254;28;20061;-62
2023/01/02 08:39:55;;;;;;;19.70;14.65;;;308.10;2304.00;;;;;;5092010;28;20036;-61
2023/01/02 08:42:21;;;;;;;20.38;16.05;;;308.10;2304.00;;;;;;5092133;28;20035;-63
2023/01/02 08:44:46;;;;;;;33.97;28.08;;;308.00;2304.00;;;;;;5091451;28;20528;-62
2023/01/02 08:47:12;;;;;;;20.02;17.45;;;332.90;2329.60;;;;;;5092222;28;20448;-61
2023/01/02 08:49:38;;;;;;;27.98;21.08;;;358.40;2329.60;;;;;;5091862;28;20032;-60
2023/01/02 08:52:04;;;;;;;29.40;25.02;;;384.20;2329.60;;;;;;5092029;28;20107;-61
2023/01/02 08:54:30;;;;;;;29.73;22.88;;;409.80;2355.20;;;;;;5091908;28;20027;-61
2023/01/02 08:56:56;;;;;;;22.60;19.13;;;410.50;2278.40;;;;;;5091583;28;20063;-61
2023/01/02 08:59:23;;;;;;;24.88;20.92;;;410.50;2252.80;;;;;;5092021;28;20056;-61
2023/01/02 09:01:49;;;;;;;24.60;18.50;;;435.40;2176.00;;;;;;5091724;28;20024;-61
2023/01/02 09:04:15;;;;;;;17.10;14.63;;;410.50;2201.60;;;;;;5091306;28;20028;-62
2023/01/02 09:06:42;;;;;;;18.27;14.82;;;435.20;2201.60;;;;;;5091484;28;20027;-61
2023/01/02 09:09:08;;;;;;;17.88;13.30;;;435.70;2150.40;;;;;;5090999;28;20024;-61
2023/01/02 09:11:37;;;;;;;16.85;14.73;;;436.10;2124.80;;;;;;5091252;28;20025;-63
2023/01/02 09:14:04;;;;;;;25.95;18.55;;;460.90;2124.80;;;;;;5091325;28;20028;-61
2023/01/02 09:16:30;;;;;;;23.98;18.60;;;461.30;2073.60;;;;;;5091307;28;20040;-62
2023/01/02 09:18:59;;;;;;;27.92;20.50;;;461.50;2022.40;;;;;;5090215;28;20028;-61
2023/01/02 09:21:25;;;;;;;37.88;31.95;;;461.20;2022.40;;;;;;5091668;28;20020;-62
2023/01/02 09:23:51;;;;;;;32.90;28.88;;;461.50;2048.00;;;;;;5090108;28;20052;-61
2023/01/02 09:26:17;;;;;;;33.97;29.50;;;461.70;2022.40;;;;;;5090502;28;20098;-61
2023/01/02 09:28:43;;;;;;;34.70;29.38;;;486.80;1971.20;;;;;;5090450;28;20021;-63
2023/01/02 09:31:11;;;;;;;56.85;33.90;;;487.30;1894.40;;;;;;5091303;28;20020;-62
2023/01/02 09:33:38;;;;;;;39.90;30.75;;;512.00;1868.80;;;;;;5090884;28;20031;-63
2023/01/02 09:36:06;;;;;;;39.33;28.98;;;487.30;1868.80;;;;;;5090728;28;20378;-62
2023/01/02 09:38:32;;;;;;;56.00;43.95;;;487.00;1894.40;;;;;;5090970;28;20028;-60
2023/01/02 09:41:04;;;;;;;171.18;134.45;;;461.50;1996.80;;;;;;5091026;28;20028;-62
2023/01/02 09:43:41;;;;;;;164.15;130.57;;;461.10;2073.60;;;;;;5090655;28;20381;-62
2023/01/02 09:46:20;;;;;;;118.85;98.75;;;436.00;2099.20;;;;;;5088608;28;20377;-62
2023/01/02 09:48:45;;;;;;;108.80;90.03;;;435.30;2176.00;;;;;;5089349;28;20044;-62
2023/01/02 09:51:11;;;;;;;102.15;82.55;;;410.50;2252.80;;;;;;5091113;28;20074;-62
2023/01/02 09:53:37;;;;;;;94.63;72.35;;;410.20;2278.40;;;;;;5090976;28;20526;-61
2023/01/02 09:56:06;;;;;;;574.83;480.85;;;410.20;2355.20;;;;;;5090276;28;20043;-62
2023/01/02 09:59:23;;;;;;;540.10;459.75;;;409.80;2355.20;;;;;;5090670;28;20024;-62
2023/01/02 10:01:57;;;;;;;474.58;395.85;;;384.90;2329.60;;;;;;5045570;28;20028;-62
2023/01/02 10:04:46;;;;;;;448.77;372.08;;;384.40;2329.60;;;;;;5090026;28;20030;-62
2023/01/02 10:07:33;;;;;;;442.85;358.65;;;384.40;2329.60;;;;;;5087945;28;20035;-62
2023/01/02 10:10:15;;;;;;;368.70;300.65;;;384.50;2329.60;;;;;;5088658;28;20047;-61
2023/01/02 10:12:58;;;;;;;458.20;371.17;;;384.40;2329.60;;;;;;5088054;28;20481;-60
2023/01/02 10:15:27;;;;;;;452.25;376.08;;;384.20;2329.60;;;;;;5086415;28;20028;-62
2023/01/02 10:17:58;;;;;;;436.80;365.90;;;384.20;2329.60;;;;;;5089223;28;20039;-60
2023/01/02 10:20:32;;;;;;;317.95;276.05;;;384.30;2329.60;;;;;;5088852;28;20020;-62
2023/01/02 10:23:04;;;;;;;338.02;282.92;;;384.30;2329.60;;;;;;5088911;28;20374;-62
2023/01/02 10:25:40;;;;;;;351.90;293.70;;;384.40;2329.60;;;;;;5086741;28;20541;-61
2023/01/02 10:28:05;;;;;;;281.70;234.40;;;384.40;2329.60;;;;;;5088609;28;20028;-62
2023/01/02 10:30:40;;;;;;;306.75;250.57;;;384.50;2329.60;;;;;;5088567;28;20031;-62
2023/01/02 10:33:18;;;;;;;383.10;305.52;;;384.40;2329.60;;;;;;5088727;28;20012;-62
2023/01/02 10:35:50;;;;;;;287.60;238.85;;;384.10;2329.60;;;;;;5088776;28;20502;-62
2023/01/02 10:38:18;;;;;;;278.42;225.10;;;384.10;2329.60;;;;;;5088782;28;20035;-62
2023/01/02 10:40:46;;;;;;;250.70;194.07;;;384.40;2329.60;;;;;;5088320;28;20390;-62
2023/01/02 10:43:14;;;;;;;187.30;147.80;;;384.60;2329.60;;;;;;5088988;28;20029;-61
2023/01/02 10:45:40;;;;;;;142.05;115.38;;;384.60;2329.60;;;;;;5088418;28;20044;-61
2023/01/02 10:48:10;;;;;;;152.73;122.57;;;384.70;2329.60;;;;;;5085660;28;20165;-61
2023/01/02 10:50:41;;;;;;;194.77;157.00;;;384.70;2329.60;;;;;;5088585;28;20047;-62
2023/01/02 10:53:29;;;;;;;147.25;117.57;;;384.70;2329.60;;;;;;5085772;28;20024;-62
2023/01/02 10:55:59;;;;;;;204.98;168.13;;;384.80;2329.60;;;;;;5086885;28;20028;-62
2023/01/02 10:58:27;;;;;;;149.07;124.93;;;384.90;2329.60;;;;;;5089005;28;20026;-63
2023/01/02 11:01:12;;;;;;;237.85;196.35;;;384.90;2329.60;;;;;;5089062;28;20481;-62
2023/01/02 11:03:38;;;;;;;204.98;161.05;;;384.90;2329.60;;;;;;5089602;28;20018;-62
2023/01/02 11:06:16;;;;;;;211.30;165.35;;;384.70;2329.60;;;;;;5089689;28;20028;-62
2023/01/02 11:08:42;;;;;;;172.40;141.23;;;384.60;2329.60;;;;;;5089788;28;20070;-61
2023/01/02 11:11:15;;;;;;;204.70;162.80;;;384.40;2329.60;;;;;;5089860;28;20036;-62
2023/01/02 11:13:47;;;;;;;224.50;175.65;;;384.40;2329.60;;;;;;5089912;28;20020;-62
2023/01/02 11:16:15;;;;;;;205.07;163.00;;;384.40;2329.60;;;;;;5088038;28;20465;-62
2023/01/02 11:18:50;;;;;;;218.48;166.45;;;384.40;2329.60;;;;;;5088785;28;20024;-61
2023/01/02 11:21:24;;;;;;;185.13;148.15;;;384.70;2329.60;;;;;;5089079;28;20024;-62
2023/01/02 11:23:55;;;;;;;219.18;164.20;;;384.70;2329.60;;;;;;5088854;28;20373;-62
2023/01/02 11:26:23;;;;;;;225.05;170.10;;;384.60;2329.60;;;;;;5089027;28;20024;-61
2023/01/02 11:28:51;;;;;;;216.95;163.65;;;384.60;2329.60;;;;;;5089779;28;20016;-62
2023/01/02 11:31:17;;;;;;;158.75;119.80;;;384.60;2329.60;;;;;;5089413;28;20058;-60
2023/01/02 11:33:44;;;;;;;183.45;141.65;;;384.90;2329.60;;;;;;5088245;28;20497;-62
2023/01/02 11:36:10;;;;;;;192.50;147.45;;;409.70;2355.20;;;;;;5087436;28;20040;-60
2023/01/02 11:38:45;;;;;;;217.07;160.32;;;409.70;2355.20;;;;;;5087672;28;20028;-62
2023/01/02 11:44:35;;;;;;;154.68;118.25;;;409.80;2355.20;;;;;;5091608;28;20067;-61
2023/01/02 11:47:02;;;;;;;154.13;119.82;;;409.90;2355.20;;;;;;5091722;28;20087;-61
2023/01/02 11:49:46;;;;;;;158.55;114.80;;;409.70;2355.20;;;;;;5090650;28;20024;-61
2023/01/02 11:52:15;;;;;;;162.60;118.32;;;409.70;2355.20;;;;;;5091678;28;20051;-61
2023/01/02 11:54:48;;;;;;;119.45;94.90;;;409.80;2355.20;;;;;;5091280;28;20032;-61
2023/01/02 11:57:46;;;;;;;120.78;90.47;;;409.70;2355.20;;;;;;5091433;28;20032;-61
2023/01/02 12:00:15;;;;;;;108.43;87.82;;;409.90;2355.20;;;;;;5008784;28;20030;-61
2023/01/02 12:02:47;;;;;;;113.82;88.35;;;409.80;2355.20;;;;;;5008470;28;20030;-60
2023/01/02 12:05:47;;;;;;;135.70;102.82;;;410.00;2355.20;;;;;;5008184;28;20083;-61
2023/01/02 12:08:24;;;;;;;137.70;105.10;;;410.00;2355.20;;;;;;5007630;28;20042;-61
2023/01/02 12:11:00;;;;;;;146.40;117.82;;;409.90;2355.20;;;;;;5007415;28;20041;-62
2023/01/02 12:13:53;;;;;;;149.70;117.88;;;410.00;2355.20;;;;;;5007460;28;20852;-61
2023/01/02 12:16:34;;;;;;;120.75;96.47;;;410.10;2355.20;;;;;;5002864;28;20065;-62
2023/01/02 12:19:20;;;;;;;108.95;86.78;;;410.00;2355.20;;;;;;5005493;28;20125;-61